createdAt,value
2023-03-06T00:00:51.972Z,59.00
2023-03-06T00:03:19.742Z,59.50
2023-03-06T00:05:47.270Z,58.33
2023-03-06T00:08:14.508Z,58.02
2023-03-06T00:10:41.927Z,57.29
2023-03-06T00:13:13.038Z,57.56
2023-03-06T00:15:40.176Z,57.07
2023-03-06T00:18:07.493Z,55.95
2023-03-06T00:20:35.582Z,57.03
2023-03-06T00:23:02.908Z,57.34
2023-03-06T00:25:29.823Z,56.32
2023-03-06T00:27:56.953Z,56.05
2023-03-06T00:30:25.447Z,56.66
2023-03-06T00:32:53.593Z,55.18
2023-03-06T00:35:21.078Z,57.32
2023-03-06T00:37:48.681Z,56.61
2023-03-06T00:40:18.391Z,58.09
2023-03-06T00:42:45.856Z,57.68
2023-03-06T00:45:13.161Z,56.88
2023-03-06T00:47:40.986Z,56.81
2023-03-06T00:50:12.159Z,56.40
2023-03-06T00:52:39.649Z,56.87
2023-03-06T00:55:08.795Z,58.11
2023-03-06T00:57:36.098Z,58.40
2023-03-06T01:00:04.412Z,58.24
2023-03-06T01:02:31.937Z,58.46
2023-03-06T01:04:58.841Z,57.29
2023-03-06T01:07:27.432Z,57.37
2023-03-06T01:09:54.589Z,56.99
2023-03-06T01:12:23.492Z,56.99
2023-03-06T01:14:52.567Z,56.80
2023-03-06T01:17:19.460Z,57.48
2023-03-06T01:19:46.539Z,58.33
2023-03-06T01:22:13.842Z,58.10
2023-03-06T01:24:40.704Z,58.83
2023-03-06T01:27:07.449Z,58.74
2023-03-06T01:29:34.276Z,59.85
2023-03-06T01:32:01.309Z,59.34
2023-03-06T01:34:28.482Z,58.90
2023-03-06T01:36:55.662Z,59.72
2023-03-06T01:39:23.092Z,58.84
2023-03-06T01:41:56.264Z,59.51
2023-03-06T01:44:23.501Z,59.22
2023-03-06T01:46:50.492Z,58.65
2023-03-06T01:49:26.583Z,59.54
2023-03-06T01:52:00.243Z,58.43
2023-03-06T01:54:35.803Z,58.83
2023-03-06T01:57:08.303Z,58.46
2023-03-06T01:59:37.739Z,58.37
2023-03-06T02:02:12.726Z,59.16
2023-03-06T02:04:42.504Z,59.49
2023-03-06T02:07:10.000Z,59.60
2023-03-06T02:09:40.305Z,58.31
2023-03-06T02:12:13.074Z,56.94
2023-03-06T02:14:42.540Z,57.56
2023-03-06T02:17:11.857Z,57.17
2023-03-06T02:20:18.432Z,58.40
2023-03-06T02:23:00.497Z,58.49
2023-03-06T02:25:35.901Z,59.30
2023-03-06T02:28:04.332Z,58.82
2023-03-06T02:30:31.815Z,58.44
2023-03-06T02:33:01.028Z,59.57
2023-03-06T02:35:30.523Z,58.73
2023-03-06T02:38:08.831Z,59.96
2023-03-06T02:40:37.419Z,58.26
2023-03-06T02:43:04.847Z,58.96
2023-03-06T02:45:34.452Z,58.83
2023-03-06T02:48:01.655Z,58.79
2023-03-06T02:50:29.789Z,59.16
2023-03-06T02:52:57.524Z,58.27
2023-03-06T02:55:24.869Z,59.51
2023-03-06T02:57:59.805Z,58.58
2023-03-06T03:00:28.400Z,58.54
2023-03-06T03:02:55.749Z,59.19
2023-03-06T03:05:22.624Z,58.68
2023-03-06T03:07:57.489Z,59.71
2023-03-06T03:10:25.383Z,59.73
2023-03-06T03:12:52.319Z,58.05
2023-03-06T03:15:20.061Z,59.06
2023-03-06T03:17:48.426Z,59.40
2023-03-06T03:20:19.028Z,58.54
2023-03-06T03:22:55.572Z,57.41
2023-03-06T03:25:24.887Z,58.46
2023-03-06T03:27:55.155Z,56.79
2023-03-06T03:30:23.130Z,57.39
2023-03-06T03:32:50.502Z,56.66
2023-03-06T03:35:18.183Z,56.94
2023-03-06T03:37:46.418Z,57.11
2023-03-06T03:40:17.416Z,57.17
2023-03-06T03:42:45.035Z,57.00
2023-03-06T03:45:12.833Z,57.45
2023-03-06T03:47:40.728Z,59.12
2023-03-06T03:50:09.051Z,57.83
2023-03-06T03:52:36.886Z,59.71
2023-03-06T03:55:05.332Z,59.23
2023-03-06T03:57:33.154Z,59.16
2023-03-06T04:00:00.665Z,57.99
2023-03-06T04:02:52.046Z,58.99
2023-03-06T04:05:33.198Z,58.25
2023-03-06T04:08:03.363Z,58.18
2023-03-06T04:10:38.987Z,59.22
2023-03-06T04:13:09.996Z,58.19
2023-03-06T04:15:40.397Z,57.54
2023-03-06T04:18:07.607Z,59.19
2023-03-06T04:20:35.332Z,59.29
2023-03-06T04:23:02.765Z,58.60
2023-03-06T04:25:32.458Z,58.84
2023-03-06T04:28:03.328Z,58.46
2023-03-06T04:30:31.967Z,58.62
2023-03-06T04:33:00.551Z,58.93
2023-03-06T04:35:27.854Z,58.56
2023-03-06T04:38:00.641Z,59.64
2023-03-06T04:40:34.135Z,58.94
2023-03-06T04:43:02.936Z,59.17
2023-03-06T04:45:31.710Z,59.81
2023-03-06T04:47:59.878Z,60.24
2023-03-06T04:50:28.487Z,59.37
2023-03-06T04:52:55.452Z,59.86
2023-03-06T04:55:22.294Z,59.48
2023-03-06T04:57:49.291Z,59.36
2023-03-06T05:00:20.966Z,59.83
2023-03-06T05:02:49.027Z,60.13
2023-03-06T05:05:17.551Z,59.35
2023-03-06T05:07:46.114Z,60.23
2023-03-06T05:10:15.884Z,58.91
2023-03-06T05:12:43.251Z,60.07
2023-03-06T05:15:11.651Z,60.00
2023-03-06T05:17:38.995Z,60.13
2023-03-06T05:20:09.757Z,60.24
2023-03-06T05:22:37.141Z,61.02
2023-03-06T05:25:05.071Z,60.90
2023-03-06T05:27:32.283Z,60.06
2023-03-06T05:29:59.161Z,60.16
2023-03-06T05:32:26.509Z,60.03
2023-03-06T05:34:53.673Z,60.35
2023-03-06T05:37:23.138Z,60.18
2023-03-06T05:39:52.918Z,60.89
2023-03-06T05:42:19.878Z,60.74
2023-03-06T05:44:47.289Z,61.21
2023-03-06T05:47:14.772Z,60.61
2023-03-06T05:49:41.701Z,61.24
2023-03-06T05:52:09.513Z,60.81
2023-03-06T05:54:37.654Z,60.29
2023-03-06T05:57:07.712Z,60.47
2023-03-06T05:59:36.212Z,60.40
2023-03-06T06:02:05.582Z,59.55
2023-03-06T06:04:33.397Z,59.90
2023-03-06T06:07:01.408Z,59.06
2023-03-06T06:09:30.064Z,60.28
2023-03-06T06:12:03.885Z,59.63
2023-03-06T06:14:34.768Z,60.09
2023-03-06T06:17:02.130Z,59.88
2023-03-06T06:19:30.890Z,58.46
2023-03-06T06:21:58.621Z,59.80
2023-03-06T06:24:26.823Z,59.98
2023-03-06T06:26:55.914Z,59.94
2023-03-06T06:29:23.818Z,59.82
2023-03-06T06:31:51.679Z,60.16
2023-03-06T06:34:19.385Z,58.83
2023-03-06T06:36:46.452Z,60.13
2023-03-06T06:39:17.611Z,59.74
2023-03-06T06:42:02.326Z,60.16
2023-03-06T06:44:33.306Z,60.61
2023-03-06T06:49:51.206Z,60.39
2023-03-06T06:52:19.061Z,60.33
2023-03-06T06:54:46.053Z,59.47
2023-03-06T06:57:13.362Z,59.33
2023-03-06T06:59:40.913Z,59.30
2023-03-06T07:02:08.202Z,59.98
2023-03-06T07:04:35.156Z,59.81
2023-03-06T07:07:02.477Z,59.91
2023-03-06T07:09:30.915Z,58.62
2023-03-06T07:11:58.721Z,58.88
2023-03-06T07:14:25.757Z,59.21
2023-03-06T07:16:52.807Z,58.98
2023-03-06T07:19:20.986Z,57.82
2023-03-06T07:21:47.961Z,57.66
2023-03-06T07:24:15.346Z,57.21
2023-03-06T07:26:50.112Z,58.21
2023-03-06T07:29:17.440Z,57.39
2023-03-06T07:31:45.116Z,58.85
2023-03-06T07:34:13.842Z,58.46
2023-03-06T07:36:42.289Z,57.89
2023-03-06T07:39:09.636Z,57.57
2023-03-06T07:41:36.842Z,58.11
2023-03-06T07:44:03.734Z,57.36
2023-03-06T07:46:30.952Z,56.67
2023-03-06T07:48:58.411Z,56.95
2023-03-06T07:51:26.697Z,56.84
2023-03-06T07:53:55.342Z,55.26
2023-03-06T07:56:22.665Z,55.46
2023-03-06T07:58:49.761Z,56.50
2023-03-06T08:01:20.557Z,56.71
2023-03-06T08:03:50.214Z,55.72
2023-03-06T08:06:23.100Z,55.61
2023-03-06T08:08:51.639Z,54.89
2023-03-06T08:11:21.060Z,56.85
2023-03-06T08:13:48.886Z,56.03
2023-03-06T08:16:18.612Z,56.85
2023-03-06T08:18:48.352Z,56.50
2023-03-06T08:21:18.419Z,57.06
2023-03-06T08:23:46.497Z,56.16
2023-03-06T08:26:17.103Z,56.38
2023-03-06T08:28:48.195Z,56.38
2023-03-06T08:31:36.426Z,56.92
2023-03-06T08:34:06.253Z,58.11
2023-03-06T08:36:33.970Z,56.32
2023-03-06T08:39:01.630Z,58.14
2023-03-06T08:41:29.312Z,57.70
2023-03-06T08:43:57.435Z,56.91
2023-03-06T08:46:27.062Z,56.99
2023-03-06T08:48:54.178Z,56.51
2023-03-06T08:51:22.119Z,56.57
2023-03-06T08:53:55.878Z,57.56
2023-03-06T08:56:28.944Z,56.18
2023-03-06T08:58:57.918Z,56.21
2023-03-06T09:01:27.666Z,56.23
2023-03-06T09:03:57.095Z,56.38
2023-03-06T09:06:25.804Z,55.07
2023-03-06T09:08:54.147Z,54.75
2023-03-06T09:11:24.562Z,54.72
2023-03-06T09:13:52.636Z,54.39
2023-03-06T09:16:20.198Z,53.70
2023-03-06T09:18:51.031Z,54.44
2023-03-06T09:21:18.758Z,53.42
2023-03-06T09:23:46.359Z,53.41
2023-03-06T09:26:13.677Z,53.21
2023-03-06T09:28:41.083Z,53.25
2023-03-06T09:31:18.987Z,53.41
2023-03-06T09:33:47.170Z,52.39
2023-03-06T09:36:20.822Z,52.65
2023-03-06T09:38:50.186Z,52.21
2023-03-06T09:41:32.768Z,52.65
2023-03-06T09:44:05.042Z,53.04
2023-03-06T09:47:17.500Z,51.14
2023-03-06T09:50:05.350Z,51.43
2023-03-06T09:52:57.372Z,51.59
2023-03-06T09:55:35.797Z,52.70
2023-03-06T09:58:13.165Z,52.81
2023-03-06T10:00:45.940Z,51.83
2023-03-06T10:03:44.185Z,51.62
2023-03-06T10:06:30.996Z,52.37
2023-03-06T10:09:13.012Z,51.83
2023-03-06T10:12:01.173Z,51.96
2023-03-06T10:14:47.771Z,52.82
2023-03-06T10:17:22.849Z,53.46
2023-03-06T10:19:50.924Z,53.01
2023-03-06T10:22:39.055Z,52.92
2023-03-06T10:25:29.985Z,53.70
2023-03-06T10:28:35.064Z,53.72
2023-03-06T10:31:11.546Z,54.17
2023-03-06T10:33:58.913Z,54.85
2023-03-06T10:36:28.818Z,54.74
2023-03-06T10:39:00.153Z,55.27
2023-03-06T10:41:32.055Z,55.76
2023-03-06T10:44:05.175Z,55.80
2023-03-06T10:46:47.858Z,53.79
2023-03-06T10:49:23.922Z,53.10
2023-03-06T10:52:22.246Z,54.12
2023-03-06T10:54:49.696Z,53.24
2023-03-06T10:57:31.496Z,53.45
2023-03-06T11:00:08.046Z,53.08
2023-03-06T11:02:38.728Z,52.79
2023-03-06T11:05:06.912Z,51.72
2023-03-06T11:07:35.730Z,52.39
2023-03-06T11:10:21.140Z,52.20
2023-03-06T11:13:04.668Z,53.95
2023-03-06T11:15:33.745Z,54.05
2023-03-06T11:18:23.772Z,53.79
2023-03-06T11:20:53.593Z,52.44
2023-03-06T11:23:37.519Z,51.63
2023-03-06T11:26:20.740Z,51.31
2023-03-06T11:29:08.949Z,50.77
2023-03-06T11:31:42.251Z,50.02
2023-03-06T11:34:12.527Z,51.81
2023-03-06T11:37:00.703Z,53.39
2023-03-06T11:39:36.308Z,52.57
2023-03-06T11:42:31.977Z,51.98
2023-03-06T11:45:10.532Z,50.49
2023-03-06T11:47:43.600Z,50.27
2023-03-06T11:50:18.042Z,49.83
2023-03-06T11:52:54.226Z,51.04
2023-03-06T11:55:39.625Z,49.25
2023-03-06T11:58:26.042Z,49.25
2023-03-06T12:01:14.956Z,49.00
2023-03-06T12:04:00.821Z,47.37
2023-03-06T12:06:53.032Z,47.57
2023-03-06T12:09:27.402Z,46.39
2023-03-06T12:12:30.295Z,45.66
2023-03-06T12:15:03.389Z,45.38
2023-03-06T12:17:53.135Z,45.96
2023-03-06T12:20:47.861Z,44.80
2023-03-06T12:23:36.856Z,45.37
2023-03-06T12:26:34.818Z,44.54
2023-03-06T12:29:11.236Z,45.59
2023-03-06T12:32:01.868Z,44.58
2023-03-06T12:34:38.247Z,43.76
2023-03-06T12:37:12.574Z,45.04
2023-03-06T12:39:50.856Z,43.86
2023-03-06T12:43:00.985Z,43.99
2023-03-06T12:45:33.108Z,43.92
2023-03-06T12:48:02.220Z,44.14
2023-03-06T12:50:36.987Z,44.08
2023-03-06T12:53:20.779Z,43.63
2023-03-06T12:55:50.028Z,44.07
2023-03-06T12:58:31.152Z,44.08
2023-03-06T13:01:06.147Z,44.09
2023-03-06T13:04:05.168Z,44.81
2023-03-06T13:07:00.741Z,44.13
2023-03-06T13:09:38.611Z,43.82
2023-03-06T13:12:21.764Z,43.85
2023-03-06T13:14:58.940Z,44.22
2023-03-06T13:17:38.224Z,44.17
2023-03-06T13:20:14.222Z,43.72
2023-03-06T13:22:43.533Z,44.29
2023-03-06T13:25:17.568Z,44.36
2023-03-06T13:28:00.584Z,47.06
2023-03-06T13:30:37.107Z,49.87
2023-03-06T13:33:30.144Z,51.43
2023-03-06T13:36:20.418Z,51.48
2023-03-06T13:38:59.175Z,54.22
2023-03-06T13:41:35.063Z,60.99
2023-03-06T13:44:25.107Z,62.73
2023-03-06T13:47:19.557Z,61.68
2023-03-06T13:49:48.792Z,61.53
2023-03-06T13:52:39.672Z,59.48
2023-03-06T13:55:43.253Z,57.86
2023-03-06T13:58:44.823Z,57.52
2023-03-06T14:01:13.912Z,55.28
2023-03-06T14:03:48.015Z,54.05
2023-03-06T14:06:45.750Z,53.63
2023-03-06T14:09:28.466Z,54.14
2023-03-06T14:12:02.671Z,54.00
2023-03-06T14:14:39.842Z,53.56
2023-03-06T14:17:15.441Z,53.47
2023-03-06T14:19:43.055Z,52.91
2023-03-06T14:22:19.163Z,52.95
2023-03-06T14:24:56.655Z,52.90
2023-03-06T14:27:44.099Z,54.64
2023-03-06T14:30:16.817Z,55.13
2023-03-06T14:32:44.905Z,55.42
2023-03-06T14:35:32.006Z,55.35
2023-03-06T14:38:02.832Z,53.36
2023-03-06T14:40:45.047Z,53.79
2023-03-06T14:43:20.637Z,51.90
2023-03-06T14:46:03.701Z,50.55
2023-03-06T14:48:45.461Z,49.22
2023-03-06T14:51:18.166Z,48.21
2023-03-06T14:53:48.995Z,47.29
2023-03-06T14:56:27.720Z,44.75
2023-03-06T14:59:01.041Z,46.12
2023-03-06T15:01:41.554Z,46.10
2023-03-06T15:04:43.449Z,46.56
2023-03-06T15:07:19.031Z,46.26
2023-03-06T15:09:50.151Z,46.73
2023-03-06T15:12:20.049Z,46.77
2023-03-06T15:15:10.817Z,47.04
2023-03-06T15:17:38.030Z,47.05
2023-03-06T15:20:10.103Z,48.31
2023-03-06T15:22:43.914Z,48.36
2023-03-06T15:25:30.205Z,48.51
2023-03-06T15:28:32.810Z,48.68
2023-03-06T15:31:20.805Z,50.57
2023-03-06T15:34:02.736Z,52.32
2023-03-06T15:36:34.963Z,56.18
2023-03-06T15:39:02.830Z,58.59
2023-03-06T15:41:37.048Z,59.93
2023-03-06T15:44:14.996Z,62.72
2023-03-06T15:46:42.924Z,62.69
2023-03-06T15:49:16.775Z,63.53
2023-03-06T15:51:44.833Z,66.94
2023-03-06T15:54:12.979Z,64.89
2023-03-06T15:56:42.952Z,66.83
2023-03-06T15:59:41.771Z,68.53
2023-03-06T16:02:17.420Z,69.40
2023-03-06T16:04:45.282Z,70.08
2023-03-06T16:07:13.406Z,68.49
2023-03-06T16:09:42.765Z,68.97
2023-03-06T16:12:18.404Z,69.97
2023-03-06T16:14:48.719Z,67.72
2023-03-06T16:17:16.935Z,68.07
2023-03-06T16:19:44.353Z,67.99
2023-03-06T16:22:11.824Z,67.14
2023-03-06T16:24:39.007Z,66.70
2023-03-06T16:27:07.885Z,66.61
2023-03-06T16:29:35.469Z,66.29
2023-03-06T16:32:04.585Z,65.54
2023-03-06T16:34:33.155Z,65.41
2023-03-06T16:37:00.387Z,64.65
2023-03-06T16:39:28.468Z,65.72
2023-03-06T16:41:55.622Z,65.92
2023-03-06T16:44:23.021Z,66.94
2023-03-06T16:46:51.307Z,64.10
2023-03-06T16:49:24.733Z,63.71
2023-03-06T16:52:00.539Z,63.67
2023-03-06T16:54:34.875Z,63.46
2023-03-06T17:04:11.270Z,64.39
2023-03-06T17:06:43.632Z,63.31
2023-03-06T17:09:23.643Z,65.66
2023-03-06T17:11:55.923Z,64.88
2023-03-06T17:14:23.395Z,65.63
2023-03-06T17:16:50.914Z,65.34
2023-03-06T17:19:23.343Z,66.14
2023-03-06T17:21:50.820Z,66.57
2023-03-06T17:24:18.673Z,65.72
2023-03-06T17:26:48.554Z,67.11
2023-03-06T17:29:15.830Z,66.82
2023-03-06T17:31:43.094Z,66.95
2023-03-06T17:34:13.095Z,66.51
2023-03-06T17:36:40.552Z,66.80
2023-03-06T17:39:13.437Z,65.68
2023-03-06T17:41:46.363Z,65.30
2023-03-06T17:44:16.776Z,64.83
2023-03-06T17:46:50.202Z,64.93
2023-03-06T17:49:26.907Z,65.95
2023-03-06T17:51:56.754Z,65.77
2023-03-06T17:54:38.621Z,64.77
2023-03-06T17:57:58.477Z,66.01
2023-03-06T18:18:07.434Z,65.87
2023-03-06T18:20:59.898Z,66.32
2023-03-06T18:24:16.636Z,62.73
2023-03-06T18:26:44.442Z,63.43
2023-03-06T18:29:11.455Z,62.64
2023-03-06T18:31:41.285Z,62.05
2023-03-06T18:34:14.268Z,61.80
2023-03-06T18:36:43.689Z,61.52
2023-03-06T18:39:14.826Z,62.54
2023-03-06T18:41:45.268Z,62.48
2023-03-06T18:44:13.514Z,61.51
2023-03-06T18:46:41.451Z,62.13
2023-03-06T18:49:09.360Z,60.99
2023-03-06T18:51:36.570Z,60.34
2023-03-06T18:54:04.953Z,59.79
2023-03-06T18:56:32.815Z,58.99
2023-03-06T18:59:07.141Z,58.58
2023-03-06T19:01:34.686Z,59.60
2023-03-06T19:04:05.369Z,59.95
2023-03-06T19:06:33.931Z,59.87
2023-03-06T19:09:02.731Z,60.57
2023-03-06T19:11:32.126Z,59.56
2023-03-06T19:13:59.554Z,58.53
2023-03-06T19:16:28.951Z,58.48
2023-03-06T19:18:57.831Z,59.81
2023-03-06T19:21:27.713Z,62.09
2023-03-06T19:23:56.057Z,61.66
2023-03-06T19:26:23.817Z,61.42
2023-03-06T19:28:51.369Z,60.51
2023-03-06T19:31:21.108Z,61.38
2023-03-06T19:33:50.092Z,59.80
2023-03-06T19:36:18.506Z,61.08
2023-03-06T19:38:50.696Z,60.85
2023-03-06T19:41:17.982Z,61.93
2023-03-06T19:43:45.014Z,60.98
2023-03-06T19:46:13.378Z,60.64
2023-03-06T19:48:42.402Z,60.50
2023-03-06T19:51:10.481Z,60.56
2023-03-06T19:53:42.236Z,60.81
2023-03-06T19:56:15.011Z,60.62
2023-03-06T19:58:42.685Z,58.60
2023-03-06T20:01:19.269Z,59.91
2023-03-06T20:03:46.147Z,60.32
2023-03-06T20:06:15.798Z,61.00
2023-03-06T20:08:43.554Z,61.03
2023-03-06T20:11:22.452Z,61.23
2023-03-06T20:13:49.650Z,63.21
2023-03-06T20:16:17.711Z,61.45
2023-03-06T20:18:45.682Z,62.09
2023-03-06T20:21:13.520Z,61.36
2023-03-06T20:23:40.526Z,62.50
2023-03-06T20:26:14.954Z,62.63
2023-03-06T20:28:42.930Z,62.34
2023-03-06T20:31:11.728Z,63.89
2023-03-06T20:33:38.584Z,63.08
2023-03-06T20:36:13.624Z,62.81
2023-03-06T20:38:42.085Z,63.15
2023-03-06T20:41:21.875Z,63.03
2023-03-06T20:43:49.488Z,62.69
2023-03-06T20:46:17.341Z,63.58
2023-03-06T20:48:48.423Z,62.54
2023-03-06T20:51:18.933Z,62.86
2023-03-06T20:53:47.994Z,62.63
2023-03-06T20:56:17.312Z,62.47
2023-03-06T20:58:45.769Z,62.71
2023-03-06T21:01:27.716Z,63.56
2023-03-06T21:03:59.733Z,63.55
2023-03-06T21:06:28.631Z,63.06
2023-03-06T21:09:00.355Z,63.74
2023-03-06T21:11:29.317Z,64.19
2023-03-06T21:13:57.109Z,63.16
2023-03-06T21:16:26.226Z,63.60
2023-03-06T21:18:55.445Z,63.23
2023-03-06T21:21:25.997Z,63.53
2023-03-06T21:23:53.177Z,63.04
2023-03-06T21:26:23.064Z,64.22
2023-03-06T21:28:50.576Z,63.61
2023-03-06T21:31:20.138Z,64.03
2023-03-06T21:33:49.244Z,63.87
2023-03-06T21:36:18.563Z,63.54
2023-03-06T21:38:47.371Z,63.91
2023-03-06T21:41:21.056Z,63.65
2023-03-06T21:43:48.404Z,62.99
2023-03-06T21:46:15.545Z,63.00
2023-03-06T21:48:43.071Z,63.11
2023-03-06T21:51:13.067Z,63.22
2023-03-06T21:53:43.155Z,63.83
2023-03-06T21:56:12.129Z,62.88
2023-03-06T21:58:39.394Z,62.53
2023-03-06T22:01:18.777Z,63.58
2023-03-06T22:03:48.815Z,63.14
2023-03-06T22:06:18.579Z,64.08
2023-03-06T22:08:47.213Z,63.05
2023-03-06T22:11:18.544Z,63.04
2023-03-06T22:13:48.014Z,62.41
2023-03-06T22:16:15.859Z,62.88
2023-03-06T22:18:47.961Z,62.19
2023-03-06T22:21:17.226Z,62.55
2023-03-06T22:23:44.425Z,62.57
2023-03-06T22:26:13.660Z,61.65
2023-03-06T22:28:41.837Z,62.58
2023-03-06T22:31:12.054Z,62.09
2023-03-06T22:33:39.513Z,62.45
2023-03-06T22:36:10.059Z,64.11
2023-03-06T22:38:40.279Z,63.60
2023-03-06T22:41:08.627Z,62.53
2023-03-06T22:43:35.902Z,62.13
2023-03-06T22:46:08.910Z,62.37
2023-03-06T22:48:35.904Z,63.38
2023-03-06T22:51:07.065Z,62.22
2023-03-06T22:53:34.030Z,62.84
2023-03-06T22:56:01.898Z,62.35
2023-03-06T22:58:35.655Z,62.06
2023-03-06T23:01:06.561Z,62.16
2023-03-06T23:03:33.633Z,62.24
2023-03-06T23:06:00.633Z,60.94
2023-03-06T23:08:28.159Z,60.65
2023-03-06T23:10:54.855Z,61.09
2023-03-06T23:13:40.435Z,61.29
2023-03-06T23:16:26.839Z,61.19
2023-03-06T23:19:12.979Z,61.46
2023-03-06T23:21:58.603Z,60.29
2023-03-06T23:24:45.344Z,60.84
2023-03-06T23:27:12.496Z,60.91
2023-03-06T23:29:41.354Z,60.31
2023-03-06T23:32:08.781Z,61.63
2023-03-06T23:34:35.755Z,61.75
2023-03-06T23:37:02.693Z,61.18
2023-03-06T23:39:29.693Z,60.50
2023-03-06T23:41:56.836Z,59.81
2023-03-06T23:44:23.706Z,57.81
2023-03-06T23:46:50.716Z,57.65
2023-03-06T23:49:17.543Z,61.03
2023-03-06T23:51:44.690Z,60.78
2023-03-06T23:54:12.083Z,59.77
2023-03-06T23:56:39.619Z,60.30
2023-03-06T23:59:07.037Z,59.52
